sensor_id;sensor_type;location;lat;lon;timestamp;P1;P2;P0
73687;PMS7003;62257;48.376;-4.378;2023-02-18T00:00:55;5.25;2.25;1.50
73687;PMS7003;62257;48.376;-4.378;2023-02-18T00:03:22;1.25;1.25;1.00
73687;PMS7003;62257;48.376;-4.378;2023-02-18T00:05:47;1.75;0.00;0.00
73687;PMS7003;62257;48.376;-4.378;2023-02-18T00:08:13;3.00;3.00;2.50
73687;PMS7003;62257;48.376;-4.378;2023-02-18T00:10:39;3.75;2.75;1.75
73687;PMS7003;62257;48.376;-4.378;2023-02-18T00:13:05;5.75;4.25;2.00
73687;PMS7003;62257;48.376;-4.378;2023-02-18T00:15:30;2.75;2.00;2.00
73687;PMS7003;62257;48.376;-4.378;2023-02-18T00:17:55;3.00;2.50;2.00
73687;PMS7003;62257;48.376;-4.378;2023-02-18T00:20:20;3.00;3.00;2.00
73687;PMS7003;62257;48.376;-4.378;2023-02-18T00:22:45;4.25;4.25;3.25
73687;PMS7003;62257;48.376;-4.378;2023-02-18T00:25:11;4.50;3.00;2.75
73687;PMS7003;62257;48.376;-4.378;2023-02-18T00:27:36;4.00;3.00;2.00
73687;PMS7003;62257;48.376;-4.378;2023-02-18T00:30:01;5.00;2.25;1.00
73687;PMS7003;62257;48.376;-4.378;2023-02-18T00:32:28;3.00;1.00;1.00
73687;PMS7003;62257;48.376;-4.378;2023-02-18T00:34:53;3.00;1.00;1.00
73687;PMS7003;62257;48.376;-4.378;2023-02-18T00:37:18;2.75;2.00;1.00
73687;PMS7003;62257;48.376;-4.378;2023-02-18T00:39:44;2.00;1.75;1.50
73687;PMS7003;62257;48.376;-4.378;2023-02-18T00:42:09;5.25;3.00;2.00
73687;PMS7003;62257;48.376;-4.378;2023-02-18T00:44:34;9.00;4.75;2.50
73687;PMS7003;62257;48.376;-4.378;2023-02-18T00:47:00;3.75;2.75;2.00
73687;PMS7003;62257;48.376;-4.378;2023-02-18T00:49:25;5.50;3.25;3.00
73687;PMS7003;62257;48.376;-4.378;2023-02-18T00:51:50;4.00;2.25;2.00
73687;PMS7003;62257;48.376;-4.378;2023-02-18T00:54:16;3.50;2.75;1.00
73687;PMS7003;62257;48.376;-4.378;2023-02-18T00:56:41;2.00;2.00;1.00
73687;PMS7003;62257;48.376;-4.378;2023-02-18T00:59:06;3.00;2.00;1.25
73687;PMS7003;62257;48.376;-4.378;2023-02-18T01:01:31;2.25;1.50;1.00
73687;PMS7003;62257;48.376;-4.378;2023-02-18T01:03:57;1.50;1.50;1.50
73687;PMS7003;62257;48.376;-4.378;2023-02-18T01:06:22;2.25;1.00;1.00
73687;PMS7003;62257;48.376;-4.378;2023-02-18T01:08:48;2.75;2.00;1.50
73687;PMS7003;62257;48.376;-4.378;2023-02-18T01:11:13;6.00;2.00;1.75
73687;PMS7003;62257;48.376;-4.378;2023-02-18T01:13:39;3.75;2.00;2.00
73687;PMS7003;62257;48.376;-4.378;2023-02-18T01:16:05;2.00;1.25;1.00
73687;PMS7003;62257;48.376;-4.378;2023-02-18T01:18:30;3.50;2.00;1.00
73687;PMS7003;62257;48.376;-4.378;2023-02-18T01:20:56;4.50;2.00;1.75
73687;PMS7003;62257;48.376;-4.378;2023-02-18T01:23:21;0.00;0.00;0.00
73687;PMS7003;62257;48.376;-4.378;2023-02-18T01:25:46;2.00;1.00;1.00
73687;PMS7003;62257;48.376;-4.378;2023-02-18T01:28:12;3.50;2.50;2.00
73687;PMS7003;62257;48.376;-4.378;2023-02-18T01:30:38;1.00;1.00;1.00
73687;PMS7003;62257;48.376;-4.378;2023-02-18T01:33:03;3.75;2.00;2.00
73687;PMS7003;62257;48.376;-4.378;2023-02-18T01:35:28;6.75;2.00;2.00
73687;PMS7003;62257;48.376;-4.378;2023-02-18T01:37:53;3.25;2.50;2.25
73687;PMS7003;62257;48.376;-4.378;2023-02-18T01:40:20;2.75;2.75;2.00
73687;PMS7003;62257;48.376;-4.378;2023-02-18T01:42:46;4.00;2.50;2.00
73687;PMS7003;62257;48.376;-4.378;2023-02-18T01:47:55;2.25;1.00;1.00
73687;PMS7003;62257;48.376;-4.378;2023-02-18T01:50:20;5.25;3.00;2.00
73687;PMS7003;62257;48.376;-4.378;2023-02-18T01:52:45;2.75;2.75;2.00
73687;PMS7003;62257;48.376;-4.378;2023-02-18T01:55:11;3.25;1.50;1.50
73687;PMS7003;62257;48.376;-4.378;2023-02-18T01:57:36;1.50;1.25;1.00
73687;PMS7003;62257;48.376;-4.378;2023-02-18T02:02:28;1.25;1.25;1.00
73687;PMS7003;62257;48.376;-4.378;2023-02-18T02:04:54;1.75;1.75;1.00
73687;PMS7003;62257;48.376;-4.378;2023-02-18T02:07:20;4.00;3.00;2.00
73687;PMS7003;62257;48.376;-4.378;2023-02-18T02:09:46;3.00;1.50;1.25
73687;PMS7003;62257;48.376;-4.378;2023-02-18T02:17:09;2.75;2.00;1.50
73687;PMS7003;62257;48.376;-4.378;2023-02-18T02:25:01;2.50;1.75;1.75
73687;PMS7003;62257;48.376;-4.378;2023-02-18T02:35:23;1.00;1.00;0.50
73687;PMS7003;62257;48.376;-4.378;2023-02-18T02:40:24;4.25;3.00;2.25
73687;PMS7003;62257;48.376;-4.378;2023-02-18T02:47:58;4.75;3.50;3.25
73687;PMS7003;62257;48.376;-4.378;2023-02-18T02:50:29;4.25;2.00;1.00
73687;PMS7003;62257;48.376;-4.378;2023-02-18T02:53:01;0.50;0.50;0.50
73687;PMS7003;62257;48.376;-4.378;2023-02-18T02:55:27;0.50;0.50;0.00
73687;PMS7003;62257;48.376;-4.378;2023-02-18T02:57:53;0.25;0.25;0.25
73687;PMS7003;62257;48.376;-4.378;2023-02-18T03:00:21;0.00;0.00;0.00
73687;PMS7003;62257;48.376;-4.378;2023-02-18T03:07:59;1.00;1.00;0.75
73687;PMS7003;62257;48.376;-4.378;2023-02-18T03:10:37;0.00;0.00;0.00
73687;PMS7003;62257;48.376;-4.378;2023-02-18T03:18:07;0.50;0.00;0.00
73687;PMS7003;62257;48.376;-4.378;2023-02-18T03:20:42;0.00;0.00;0.00
73687;PMS7003;62257;48.376;-4.378;2023-02-18T03:23:11;1.00;0.00;0.00
73687;PMS7003;62257;48.376;-4.378;2023-02-18T03:25:39;2.00;0.00;0.00
73687;PMS7003;62257;48.376;-4.378;2023-02-18T03:28:07;0.50;0.00;0.00
73687;PMS7003;62257;48.376;-4.378;2023-02-18T03:30:36;1.00;0.00;0.00
73687;PMS7003;62257;48.376;-4.378;2023-02-18T03:33:03;0.25;0.00;0.00
73687;PMS7003;62257;48.376;-4.378;2023-02-18T03:35:29;1.25;0.00;0.00
73687;PMS7003;62257;48.376;-4.378;2023-02-18T03:38:00;1.00;0.00;0.00
73687;PMS7003;62257;48.376;-4.378;2023-02-18T03:40:30;0.00;0.00;0.00
73687;PMS7003;62257;48.376;-4.378;2023-02-18T03:42:58;1.75;1.00;0.00
73687;PMS7003;62257;48.376;-4.378;2023-02-18T03:45:24;0.00;0.00;0.00
73687;PMS7003;62257;48.376;-4.378;2023-02-18T03:47:49;0.00;0.00;0.00
73687;PMS7003;62257;48.376;-4.378;2023-02-18T03:50:14;0.00;0.00;0.00
73687;PMS7003;62257;48.376;-4.378;2023-02-18T03:52:40;0.00;0.00;0.00
73687;PMS7003;62257;48.376;-4.378;2023-02-18T03:55:05;0.00;0.00;0.00
73687;PMS7003;62257;48.376;-4.378;2023-02-18T03:57:31;0.50;0.00;0.00
73687;PMS7003;62257;48.376;-4.378;2023-02-18T03:59:56;0.00;0.00;0.00
73687;PMS7003;62257;48.376;-4.378;2023-02-18T04:02:21;0.50;0.00;0.00
73687;PMS7003;62257;48.376;-4.378;2023-02-18T04:04:47;0.00;0.00;0.00
73687;PMS7003;62257;48.376;-4.378;2023-02-18T04:07:12;0.00;0.00;0.00
73687;PMS7003;62257;48.376;-4.378;2023-02-18T04:09:37;0.00;0.00;0.00
73687;PMS7003;62257;48.376;-4.378;2023-02-18T04:12:03;1.75;0.00;0.00
73687;PMS7003;62257;48.376;-4.378;2023-02-18T04:14:28;0.00;0.00;0.00
73687;PMS7003;62257;48.376;-4.378;2023-02-18T04:16:53;0.00;0.00;0.00
73687;PMS7003;62257;48.376;-4.378;2023-02-18T04:19:18;0.50;0.00;0.00
73687;PMS7003;62257;48.376;-4.378;2023-02-18T04:21:44;1.00;0.00;0.00
73687;PMS7003;62257;48.376;-4.378;2023-02-18T04:24:09;1.00;0.00;0.00
73687;PMS7003;62257;48.376;-4.378;2023-02-18T04:26:34;0.00;0.00;0.00
73687;PMS7003;62257;48.376;-4.378;2023-02-18T04:28:59;0.00;0.00;0.00
73687;PMS7003;62257;48.376;-4.378;2023-02-18T04:31:25;0.00;0.00;0.00
73687;PMS7003;62257;48.376;-4.378;2023-02-18T04:33:50;0.75;0.00;0.00
73687;PMS7003;62257;48.376;-4.378;2023-02-18T04:36:15;1.50;0.00;0.00
73687;PMS7003;62257;48.376;-4.378;2023-02-18T04:38:40;0.75;0.00;0.00
73687;PMS7003;62257;48.376;-4.378;2023-02-18T04:41:07;0.00;0.00;0.00
73687;PMS7003;62257;48.376;-4.378;2023-02-18T04:43:32;3.00;0.00;0.00
73687;PMS7003;62257;48.376;-4.378;2023-02-18T04:45:57;0.00;0.00;0.00
73687;PMS7003;62257;48.376;-4.378;2023-02-18T04:48:22;0.00;0.00;0.00
73687;PMS7003;62257;48.376;-4.378;2023-02-18T04:50:48;1.00;0.00;0.00
73687;PMS7003;62257;48.376;-4.378;2023-02-18T04:53:13;0.00;0.00;0.00
73687;PMS7003;62257;48.376;-4.378;2023-02-18T04:55:38;0.00;0.00;0.00
73687;PMS7003;62257;48.376;-4.378;2023-02-18T04:58:03;0.00;0.00;0.00
73687;PMS7003;62257;48.376;-4.378;2023-02-18T05:00:29;0.00;0.00;0.00
73687;PMS7003;62257;48.376;-4.378;2023-02-18T05:02:54;2.00;0.00;0.00
73687;PMS7003;62257;48.376;-4.378;2023-02-18T05:05:19;0.00;0.00;0.00
73687;PMS7003;62257;48.376;-4.378;2023-02-18T05:07:45;0.25;0.00;0.00
73687;PMS7003;62257;48.376;-4.378;2023-02-18T05:10:11;0.00;0.00;0.00
73687;PMS7003;62257;48.376;-4.378;2023-02-18T05:12:38;1.00;1.00;0.00
73687;PMS7003;62257;48.376;-4.378;2023-02-18T05:15:03;0.00;0.00;0.00
73687;PMS7003;62257;48.376;-4.378;2023-02-18T05:17:29;0.75;0.00;0.00
73687;PMS7003;62257;48.376;-4.378;2023-02-18T05:19:54;0.00;0.00;0.00
73687;PMS7003;62257;48.376;-4.378;2023-02-18T05:22:19;0.00;0.00;0.00
73687;PMS7003;62257;48.376;-4.378;2023-02-18T05:24:45;1.25;1.00;0.75
73687;PMS7003;62257;48.376;-4.378;2023-02-18T05:27:10;0.00;0.00;0.00
73687;PMS7003;62257;48.376;-4.378;2023-02-18T05:29:35;1.50;0.00;0.00
73687;PMS7003;62257;48.376;-4.378;2023-02-18T05:32:00;1.25;0.25;0.25
73687;PMS7003;62257;48.376;-4.378;2023-02-18T05:34:26;0.00;0.00;0.00
73687;PMS7003;62257;48.376;-4.378;2023-02-18T05:36:51;0.00;0.00;0.00
73687;PMS7003;62257;48.376;-4.378;2023-02-18T05:39:16;0.00;0.00;0.00
73687;PMS7003;62257;48.376;-4.378;2023-02-18T05:41:42;0.75;0.00;0.00
73687;PMS7003;62257;48.376;-4.378;2023-02-18T05:44:07;0.00;0.00;0.00
73687;PMS7003;62257;48.376;-4.378;2023-02-18T05:46:51;2.75;0.00;0.00
73687;PMS7003;62257;48.376;-4.378;2023-02-18T05:49:16;1.00;0.00;0.00
73687;PMS7003;62257;48.376;-4.378;2023-02-18T05:51:41;0.00;0.00;0.00
73687;PMS7003;62257;48.376;-4.378;2023-02-18T05:54:07;2.00;0.50;0.00
73687;PMS7003;62257;48.376;-4.378;2023-02-18T05:56:32;0.00;0.00;0.00
73687;PMS7003;62257;48.376;-4.378;2023-02-18T05:58:57;1.25;0.00;0.00
73687;PMS7003;62257;48.376;-4.378;2023-02-18T06:01:23;2.25;1.00;1.00
73687;PMS7003;62257;48.376;-4.378;2023-02-18T06:03:48;3.00;3.00;2.50
73687;PMS7003;62257;48.376;-4.378;2023-02-18T06:06:13;3.00;2.00;2.00
73687;PMS7003;62257;48.376;-4.378;2023-02-18T06:08:38;1.00;1.00;0.75
73687;PMS7003;62257;48.376;-4.378;2023-02-18T06:11:04;3.75;1.00;1.00
73687;PMS7003;62257;48.376;-4.378;2023-02-18T06:13:29;2.50;0.00;0.00
73687;PMS7003;62257;48.376;-4.378;2023-02-18T06:15:54;1.75;1.00;1.00
73687;PMS7003;62257;48.376;-4.378;2023-02-18T06:18:20;2.00;1.00;1.00
73687;PMS7003;62257;48.376;-4.378;2023-02-18T06:20:46;1.00;1.00;1.00
73687;PMS7003;62257;48.376;-4.378;2023-02-18T06:23:11;2.00;2.00;1.25
73687;PMS7003;62257;48.376;-4.378;2023-02-18T06:25:36;2.00;2.00;2.00
73687;PMS7003;62257;48.376;-4.378;2023-02-18T06:28:02;0.75;0.75;0.75
73687;PMS7003;62257;48.376;-4.378;2023-02-18T06:30:27;0.00;0.00;0.00
73687;PMS7003;62257;48.376;-4.378;2023-02-18T06:32:52;1.25;1.00;0.00
73687;PMS7003;62257;48.376;-4.378;2023-02-18T06:35:17;0.25;0.00;0.00
73687;PMS7003;62257;48.376;-4.378;2023-02-18T06:37:43;2.00;0.25;0.25
73687;PMS7003;62257;48.376;-4.378;2023-02-18T06:40:09;1.00;1.00;0.00
73687;PMS7003;62257;48.376;-4.378;2023-02-18T06:42:34;0.75;0.75;0.00
73687;PMS7003;62257;48.376;-4.378;2023-02-18T06:44:59;3.00;1.00;1.00
73687;PMS7003;62257;48.376;-4.378;2023-02-18T06:47:24;1.00;1.00;0.00
73687;PMS7003;62257;48.376;-4.378;2023-02-18T06:49:50;0.00;0.00;0.00
73687;PMS7003;62257;48.376;-4.378;2023-02-18T06:52:15;2.00;0.00;0.00
73687;PMS7003;62257;48.376;-4.378;2023-02-18T06:54:40;1.00;1.00;0.75
73687;PMS7003;62257;48.376;-4.378;2023-02-18T06:57:06;1.00;1.00;0.00
73687;PMS7003;62257;48.376;-4.378;2023-02-18T06:59:31;1.00;1.00;0.25
73687;PMS7003;62257;48.376;-4.378;2023-02-18T07:01:57;2.00;0.25;0.00
73687;PMS7003;62257;48.376;-4.378;2023-02-18T07:04:22;3.50;1.00;0.00
73687;PMS7003;62257;48.376;-4.378;2023-02-18T07:06:47;0.00;0.00;0.00
73687;PMS7003;62257;48.376;-4.378;2023-02-18T07:09:12;0.75;0.75;0.00
73687;PMS7003;62257;48.376;-4.378;2023-02-18T07:11:38;2.00;1.00;1.00
73687;PMS7003;62257;48.376;-4.378;2023-02-18T07:14:03;1.00;1.00;0.75
73687;PMS7003;62257;48.376;-4.378;2023-02-18T07:16:28;1.00;1.00;1.00
73687;PMS7003;62257;48.376;-4.378;2023-02-18T07:18:53;2.00;0.25;0.25
73687;PMS7003;62257;48.376;-4.378;2023-02-18T07:21:19;1.00;0.00;0.00
73687;PMS7003;62257;48.376;-4.378;2023-02-18T07:23:44;1.00;1.00;1.00
73687;PMS7003;62257;48.376;-4.378;2023-02-18T07:26:10;0.00;0.00;0.00
73687;PMS7003;62257;48.376;-4.378;2023-02-18T07:28:36;0.00;0.00;0.00
73687;PMS7003;62257;48.376;-4.378;2023-02-18T07:31:02;1.00;0.00;0.00
73687;PMS7003;62257;48.376;-4.378;2023-02-18T07:33:27;0.00;0.00;0.00
73687;PMS7003;62257;48.376;-4.378;2023-02-18T07:35:56;3.00;0.25;0.00
73687;PMS7003;62257;48.376;-4.378;2023-02-18T07:38:22;1.75;0.00;0.00
73687;PMS7003;62257;48.376;-4.378;2023-02-18T07:40:48;0.00;0.00;0.00
73687;PMS7003;62257;48.376;-4.378;2023-02-18T07:43:13;0.00;0.00;0.00
73687;PMS7003;62257;48.376;-4.378;2023-02-18T07:45:39;0.00;0.00;0.00
73687;PMS7003;62257;48.376;-4.378;2023-02-18T07:48:04;0.00;0.00;0.00
73687;PMS7003;62257;48.376;-4.378;2023-02-18T07:50:31;0.75;0.75;0.00
73687;PMS7003;62257;48.376;-4.378;2023-02-18T07:53:03;2.00;0.00;0.00
73687;PMS7003;62257;48.376;-4.378;2023-02-18T07:55:29;1.00;1.00;1.00
73687;PMS7003;62257;48.376;-4.378;2023-02-18T07:58:13;2.00;0.00;0.00
73687;PMS7003;62257;48.376;-4.378;2023-02-18T08:00:39;2.00;0.00;0.00
73687;PMS7003;62257;48.376;-4.378;2023-02-18T08:03:04;0.50;0.00;0.00
73687;PMS7003;62257;48.376;-4.378;2023-02-18T08:05:29;0.00;0.00;0.00
73687;PMS7003;62257;48.376;-4.378;2023-02-18T08:07:54;0.00;0.00;0.00
73687;PMS7003;62257;48.376;-4.378;2023-02-18T08:10:20;0.00;0.00;0.00
73687;PMS7003;62257;48.376;-4.378;2023-02-18T08:12:45;0.25;0.00;0.00
73687;PMS7003;62257;48.376;-4.378;2023-02-18T08:15:10;0.00;0.00;0.00
73687;PMS7003;62257;48.376;-4.378;2023-02-18T08:17:35;3.00;0.00;0.00
73687;PMS7003;62257;48.376;-4.378;2023-02-18T08:20:01;0.00;0.00;0.00
73687;PMS7003;62257;48.376;-4.378;2023-02-18T08:22:26;1.00;0.00;0.00
73687;PMS7003;62257;48.376;-4.378;2023-02-18T08:24:53;0.00;0.00;0.00
73687;PMS7003;62257;48.376;-4.378;2023-02-18T08:27:18;0.00;0.00;0.00
73687;PMS7003;62257;48.376;-4.378;2023-02-18T08:29:43;0.00;0.00;0.00
73687;PMS7003;62257;48.376;-4.378;2023-02-18T08:32:09;0.00;0.00;0.00
73687;PMS7003;62257;48.376;-4.378;2023-02-18T08:34:34;0.00;0.00;0.00
73687;PMS7003;62257;48.376;-4.378;2023-02-18T08:37:00;0.00;0.00;0.00
73687;PMS7003;62257;48.376;-4.378;2023-02-18T08:39:25;0.00;0.00;0.00
73687;PMS7003;62257;48.376;-4.378;2023-02-18T08:41:51;0.00;0.00;0.00
73687;PMS7003;62257;48.376;-4.378;2023-02-18T08:44:16;0.00;0.00;0.00
73687;PMS7003;62257;48.376;-4.378;2023-02-18T08:46:41;0.00;0.00;0.00
73687;PMS7003;62257;48.376;-4.378;2023-02-18T08:49:06;0.50;0.00;0.00
73687;PMS7003;62257;48.376;-4.378;2023-02-18T08:51:32;0.00;0.00;0.00
73687;PMS7003;62257;48.376;-4.378;2023-02-18T08:53:57;0.00;0.00;0.00
73687;PMS7003;62257;48.376;-4.378;2023-02-18T08:56:22;0.00;0.00;0.00
73687;PMS7003;62257;48.376;-4.378;2023-02-18T08:58:47;0.00;0.00;0.00
73687;PMS7003;62257;48.376;-4.378;2023-02-18T09:01:13;0.75;0.00;0.00
73687;PMS7003;62257;48.376;-4.378;2023-02-18T09:03:38;0.00;0.00;0.00
73687;PMS7003;62257;48.376;-4.378;2023-02-18T09:06:03;0.00;0.00;0.00
73687;PMS7003;62257;48.376;-4.378;2023-02-18T09:08:29;0.00;0.00;0.00
73687;PMS7003;62257;48.376;-4.378;2023-02-18T09:10:55;1.50;0.00;0.00
73687;PMS7003;62257;48.376;-4.378;2023-02-18T09:13:21;0.00;0.00;0.00
73687;PMS7003;62257;48.376;-4.378;2023-02-18T09:15:54;1.00;0.00;0.00
73687;PMS7003;62257;48.376;-4.378;2023-02-18T09:18:19;1.00;0.00;0.00
73687;PMS7003;62257;48.376;-4.378;2023-02-18T09:20:45;1.00;0.00;0.00
73687;PMS7003;62257;48.376;-4.378;2023-02-18T09:23:10;0.75;0.75;0.00
73687;PMS7003;62257;48.376;-4.378;2023-02-18T09:25:38;0.00;0.00;0.00
73687;PMS7003;62257;48.376;-4.378;2023-02-18T09:28:03;0.00;0.00;0.00
73687;PMS7003;62257;48.376;-4.378;2023-02-18T09:30:28;0.00;0.00;0.00
73687;PMS7003;62257;48.376;-4.378;2023-02-18T09:32:53;1.25;0.00;0.00
73687;PMS7003;62257;48.376;-4.378;2023-02-18T09:35:19;0.00;0.00;0.00
73687;PMS7003;62257;48.376;-4.378;2023-02-18T09:37:44;0.00;0.00;0.00
73687;PMS7003;62257;48.376;-4.378;2023-02-18T09:40:11;1.50;0.00;0.00
73687;PMS7003;62257;48.376;-4.378;2023-02-18T09:42:45;0.00;0.00;0.00
73687;PMS7003;62257;48.376;-4.378;2023-02-18T09:45:10;1.00;0.00;0.00
73687;PMS7003;62257;48.376;-4.378;2023-02-18T09:47:40;0.00;0.00;0.00
73687;PMS7003;62257;48.376;-4.378;2023-02-18T09:50:28;0.00;0.00;0.00
73687;PMS7003;62257;48.376;-4.378;2023-02-18T09:52:52;0.00;0.00;0.00
73687;PMS7003;62257;48.376;-4.378;2023-02-18T09:57:48;0.00;0.00;0.00
73687;PMS7003;62257;48.376;-4.378;2023-02-18T10:02:39;0.00;0.00;0.00
73687;PMS7003;62257;48.376;-4.378;2023-02-18T10:05:06;1.25;0.00;0.00
73687;PMS7003;62257;48.376;-4.378;2023-02-18T10:07:35;0.00;0.00;0.00
73687;PMS7003;62257;48.376;-4.378;2023-02-18T10:10:04;0.00;0.00;0.00
73687;PMS7003;62257;48.376;-4.378;2023-02-18T10:12:36;1.00;0.00;0.00
73687;PMS7003;62257;48.376;-4.378;2023-02-18T10:15:02;0.50;0.00;0.00
73687;PMS7003;62257;48.376;-4.378;2023-02-18T10:17:29;0.50;0.00;0.00
73687;PMS7003;62257;48.376;-4.378;2023-02-18T10:19:56;0.00;0.00;0.00
73687;PMS7003;62257;48.376;-4.378;2023-02-18T10:22:22;0.00;0.00;0.00
73687;PMS7003;62257;48.376;-4.378;2023-02-18T10:27:18;0.00;0.00;0.00
73687;PMS7003;62257;48.376;-4.378;2023-02-18T10:29:45;0.25;0.00;0.00
73687;PMS7003;62257;48.376;-4.378;2023-02-18T10:32:43;0.00;0.00;0.00
73687;PMS7003;62257;48.376;-4.378;2023-02-18T10:35:05;0.00;0.00;0.00
73687;PMS7003;62257;48.376;-4.378;2023-02-18T10:42:52;1.00;0.00;0.00
73687;PMS7003;62257;48.376;-4.378;2023-02-18T10:52:59;0.00;0.00;0.00
73687;PMS7003;62257;48.376;-4.378;2023-02-18T10:55:36;0.00;0.00;0.00
73687;PMS7003;62257;48.376;-4.378;2023-02-18T10:58:01;0.00;0.00;0.00
73687;PMS7003;62257;48.376;-4.378;2023-02-18T11:00:27;0.00;0.00;0.00
73687;PMS7003;62257;48.376;-4.378;2023-02-18T11:05:35;0.00;0.00;0.00
73687;PMS7003;62257;48.376;-4.378;2023-02-18T11:08:00;0.00;0.00;0.00
73687;PMS7003;62257;48.376;-4.378;2023-02-18T11:10:31;1.00;0.00;0.00
73687;PMS7003;62257;48.376;-4.378;2023-02-18T11:13:05;0.00;0.00;0.00
73687;PMS7003;62257;48.376;-4.378;2023-02-18T11:15:31;0.00;0.00;0.00
73687;PMS7003;62257;48.376;-4.378;2023-02-18T11:20:40;0.00;0.00;0.00
73687;PMS7003;62257;48.376;-4.378;2023-02-18T11:25:35;1.00;0.00;0.00
73687;PMS7003;62257;48.376;-4.378;2023-02-18T11:28:01;0.00;0.00;0.00
73687;PMS7003;62257;48.376;-4.378;2023-02-18T11:30:32;1.00;0.00;0.00
73687;PMS7003;62257;48.376;-4.378;2023-02-18T11:32:59;1.00;0.00;0.00
73687;PMS7003;62257;48.376;-4.378;2023-02-18T11:35:27;0.00;0.00;0.00
73687;PMS7003;62257;48.376;-4.378;2023-02-18T11:37:57;0.00;0.00;0.00
73687;PMS7003;62257;48.376;-4.378;2023-02-18T11:40:32;0.00;0.00;0.00
73687;PMS7003;62257;48.376;-4.378;2023-02-18T11:43:05;0.00;0.00;0.00
73687;PMS7003;62257;48.376;-4.378;2023-02-18T11:45:32;0.00;0.00;0.00
73687;PMS7003;62257;48.376;-4.378;2023-02-18T11:47:58;0.00;0.00;0.00
73687;PMS7003;62257;48.376;-4.378;2023-02-18T11:50:24;0.00;0.00;0.00
73687;PMS7003;62257;48.376;-4.378;2023-02-18T11:52:50;0.00;0.00;0.00
73687;PMS7003;62257;48.376;-4.378;2023-02-18T11:55:25;1.00;0.00;0.00
73687;PMS7003;62257;48.376;-4.378;2023-02-18T11:58:01;1.00;0.00;0.00
73687;PMS7003;62257;48.376;-4.378;2023-02-18T12:03:13;1.00;0.00;0.00
73687;PMS7003;62257;48.376;-4.378;2023-02-18T12:05:39;0.00;0.00;0.00
73687;PMS7003;62257;48.376;-4.378;2023-02-18T12:08:10;0.00;0.00;0.00
73687;PMS7003;62257;48.376;-4.378;2023-02-18T12:10:39;0.00;0.00;0.00
73687;PMS7003;62257;48.376;-4.378;2023-02-18T12:16:00;0.00;0.00;0.00
73687;PMS7003;62257;48.376;-4.378;2023-02-18T12:18:38;0.75;0.00;0.00
73687;PMS7003;62257;48.376;-4.378;2023-02-18T12:21:14;0.00;0.00;0.00
73687;PMS7003;62257;48.376;-4.378;2023-02-18T12:56:58;0.00;0.00;0.00
73687;PMS7003;62257;48.376;-4.378;2023-02-18T13:07:38;0.00;0.00;0.00
73687;PMS7003;62257;48.376;-4.378;2023-02-18T13:12:36;1.00;0.00;0.00
73687;PMS7003;62257;48.376;-4.378;2023-02-18T13:17:37;1.00;0.00;0.00
73687;PMS7003;62257;48.376;-4.378;2023-02-18T13:20:12;1.00;0.00;0.00
73687;PMS7003;62257;48.376;-4.378;2023-02-18T13:22:39;0.25;0.00;0.00
73687;PMS7003;62257;48.376;-4.378;2023-02-18T13:25:05;0.25;0.00;0.00
73687;PMS7003;62257;48.376;-4.378;2023-02-18T13:30:24;0.00;0.00;0.00
73687;PMS7003;62257;48.376;-4.378;2023-02-18T13:35:22;0.25;0.00;0.00
73687;PMS7003;62257;48.376;-4.378;2023-02-18T13:40:20;1.00;0.00;0.00
73687;PMS7003;62257;48.376;-4.378;2023-02-18T13:42:49;0.50;0.50;0.00
73687;PMS7003;62257;48.376;-4.378;2023-02-18T13:45:22;2.75;0.25;0.00
73687;PMS7003;62257;48.376;-4.378;2023-02-18T13:47:48;1.00;1.00;1.00
73687;PMS7003;62257;48.376;-4.378;2023-02-18T13:55:23;0.25;0.25;0.00
73687;PMS7003;62257;48.376;-4.378;2023-02-18T13:57:52;1.00;0.00;0.00
73687;PMS7003;62257;48.376;-4.378;2023-02-18T14:00:23;0.25;0.25;0.00
73687;PMS7003;62257;48.376;-4.378;2023-02-18T14:02:56;0.00;0.00;0.00
73687;PMS7003;62257;48.376;-4.378;2023-02-18T14:05:22;0.00;0.00;0.00
73687;PMS7003;62257;48.376;-4.378;2023-02-18T14:07:50;0.00;0.00;0.00
73687;PMS7003;62257;48.376;-4.378;2023-02-18T14:18:06;0.25;0.25;0.00
73687;PMS7003;62257;48.376;-4.378;2023-02-18T14:20:41;2.00;2.00;1.25
73687;PMS7003;62257;48.376;-4.378;2023-02-18T14:25:47;0.00;0.00;0.00
73687;PMS7003;62257;48.376;-4.378;2023-02-18T14:30:59;2.00;0.00;0.00
73687;PMS7003;62257;48.376;-4.378;2023-02-18T14:33:25;0.00;0.00;0.00
73687;PMS7003;62257;48.376;-4.378;2023-02-18T14:45:57;0.00;0.00;0.00
73687;PMS7003;62257;48.376;-4.378;2023-02-18T14:50:50;1.25;1.25;1.00
73687;PMS7003;62257;48.376;-4.378;2023-02-18T14:53:18;0.00;0.00;0.00
73687;PMS7003;62257;48.376;-4.378;2023-02-18T14:55:48;0.00;0.00;0.00
73687;PMS7003;62257;48.376;-4.378;2023-02-18T14:58:23;0.00;0.00;0.00
73687;PMS7003;62257;48.376;-4.378;2023-02-18T15:00:50;0.00;0.00;0.00
73687;PMS7003;62257;48.376;-4.378;2023-02-18T15:03:16;1.75;1.75;1.75
73687;PMS7003;62257;48.376;-4.378;2023-02-18T15:05:43;2.25;2.25;2.25
73687;PMS7003;62257;48.376;-4.378;2023-02-18T15:08:16;1.75;1.75;1.75
73687;PMS7003;62257;48.376;-4.378;2023-02-18T15:10:43;3.00;3.00;3.00
73687;PMS7003;62257;48.376;-4.378;2023-02-18T15:15:54;0.50;0.50;0.50
73687;PMS7003;62257;48.376;-4.378;2023-02-18T15:18:22;2.00;2.00;2.00
73687;PMS7003;62257;48.376;-4.378;2023-02-18T15:20:49;3.75;2.00;2.00
73687;PMS7003;62257;48.376;-4.378;2023-02-18T15:23:15;1.00;1.00;0.50
73687;PMS7003;62257;48.376;-4.378;2023-02-18T15:25:42;0.00;0.00;0.00
73687;PMS7003;62257;48.376;-4.378;2023-02-18T15:31:08;1.00;0.00;0.00
73687;PMS7003;62257;48.376;-4.378;2023-02-18T15:33:34;0.75;0.00;0.00
73687;PMS7003;62257;48.376;-4.378;2023-02-18T15:36:04;0.50;0.00;0.00
73687;PMS7003;62257;48.376;-4.378;2023-02-18T15:38:30;1.50;0.00;0.00
73687;PMS7003;62257;48.376;-4.378;2023-02-18T15:40:56;0.00;0.00;0.00
73687;PMS7003;62257;48.376;-4.378;2023-02-18T15:43:23;0.00;0.00;0.00
73687;PMS7003;62257;48.376;-4.378;2023-02-18T15:45:51;0.00;0.00;0.00
73687;PMS7003;62257;48.376;-4.378;2023-02-18T15:50:48;0.00;0.00;0.00
73687;PMS7003;62257;48.376;-4.378;2023-02-18T15:53:15;4.00;1.00;0.50
73687;PMS7003;62257;48.376;-4.378;2023-02-18T15:55:44;0.00;0.00;0.00
73687;PMS7003;62257;48.376;-4.378;2023-02-18T15:58:11;0.00;0.00;0.00
73687;PMS7003;62257;48.376;-4.378;2023-02-18T16:03:17;0.00;0.00;0.00
73687;PMS7003;62257;48.376;-4.378;2023-02-18T16:05:43;0.00;0.00;0.00
73687;PMS7003;62257;48.376;-4.378;2023-02-18T16:08:16;0.00;0.00;0.00
73687;PMS7003;62257;48.376;-4.378;2023-02-18T16:10:56;1.00;1.00;0.00
73687;PMS7003;62257;48.376;-4.378;2023-02-18T16:13:24;3.00;0.00;0.00
73687;PMS7003;62257;48.376;-4.378;2023-02-18T16:15:50;1.00;0.00;0.00
73687;PMS7003;62257;48.376;-4.378;2023-02-18T16:20:55;0.00;0.00;0.00
73687;PMS7003;62257;48.376;-4.378;2023-02-18T16:23:24;1.50;1.00;1.00
73687;PMS7003;62257;48.376;-4.378;2023-02-18T16:25:50;0.75;0.25;0.25
73687;PMS7003;62257;48.376;-4.378;2023-02-18T16:28:21;0.00;0.00;0.00
73687;PMS7003;62257;48.376;-4.378;2023-02-18T16:30:47;1.50;0.25;0.00
73687;PMS7003;62257;48.376;-4.378;2023-02-18T16:33:12;0.50;0.00;0.00
73687;PMS7003;62257;48.376;-4.378;2023-02-18T16:35:37;1.00;0.50;0.50
73687;PMS7003;62257;48.376;-4.378;2023-02-18T16:38:03;1.00;1.00;1.00
73687;PMS7003;62257;48.376;-4.378;2023-02-18T16:40:29;0.00;0.00;0.00
73687;PMS7003;62257;48.376;-4.378;2023-02-18T16:42:56;0.00;0.00;0.00
73687;PMS7003;62257;48.376;-4.378;2023-02-18T16:45:25;1.25;1.25;1.00
73687;PMS7003;62257;48.376;-4.378;2023-02-18T16:47:53;0.50;0.50;0.50
73687;PMS7003;62257;48.376;-4.378;2023-02-18T16:50:19;1.25;1.00;0.25
73687;PMS7003;62257;48.376;-4.378;2023-02-18T16:52:45;2.75;1.75;1.00
73687;PMS7003;62257;48.376;-4.378;2023-02-18T16:55:20;1.50;1.00;1.00
73687;PMS7003;62257;48.376;-4.378;2023-02-18T16:57:46;2.25;0.75;0.75
73687;PMS7003;62257;48.376;-4.378;2023-02-18T17:00:12;1.00;1.00;0.00